sensor_id;sensor_type;location;lat;lon;timestamp;temperature;humidity
33093;DHT22;19456;46.104;12.908;2023-09-18T00:01:38;21.20;99.90
33093;DHT22;19456;46.104;12.908;2023-09-18T00:04:05;21.10;99.90
33093;DHT22;19456;46.104;12.908;2023-09-18T00:06:31;21.10;99.90
33093;DHT22;19456;46.104;12.908;2023-09-18T00:08:56;21.10;99.90
33093;DHT22;19456;46.104;12.908;2023-09-18T00:11:22;21.00;99.90
33093;DHT22;19456;46.104;12.908;2023-09-18T00:13:47;20.90;99.90
33093;DHT22;19456;46.104;12.908;2023-09-18T00:16:13;20.90;99.90
33093;DHT22;19456;46.104;12.908;2023-09-18T00:18:38;21.00;99.90
33093;DHT22;19456;46.104;12.908;2023-09-18T00:21:04;21.00;99.90
33093;DHT22;19456;46.104;12.908;2023-09-18T00:23:32;21.00;99.90
33093;DHT22;19456;46.104;12.908;2023-09-18T00:25:58;21.00;99.90
33093;DHT22;19456;46.104;12.908;2023-09-18T00:28:23;21.00;99.90
33093;DHT22;19456;46.104;12.908;2023-09-18T00:30:49;21.10;99.90
33093;DHT22;19456;46.104;12.908;2023-09-18T00:33:15;21.20;99.90
33093;DHT22;19456;46.104;12.908;2023-09-18T00:35:44;21.20;99.90
33093;DHT22;19456;46.104;12.908;2023-09-18T00:38:10;21.10;99.90
33093;DHT22;19456;46.104;12.908;2023-09-18T00:40:36;21.10;99.90
33093;DHT22;19456;46.104;12.908;2023-09-18T00:43:01;21.10;99.90
33093;DHT22;19456;46.104;12.908;2023-09-18T00:45:27;21.00;99.90
33093;DHT22;19456;46.104;12.908;2023-09-18T00:47:53;21.00;99.90
33093;DHT22;19456;46.104;12.908;2023-09-18T00:50:19;21.10;99.90
33093;DHT22;19456;46.104;12.908;2023-09-18T00:52:47;21.10;99.90
33093;DHT22;19456;46.104;12.908;2023-09-18T00:55:13;21.10;99.90
33093;DHT22;19456;46.104;12.908;2023-09-18T00:57:38;21.10;99.90
33093;DHT22;19456;46.104;12.908;2023-09-18T01:00:05;21.00;99.90
33093;DHT22;19456;46.104;12.908;2023-09-18T01:02:31;21.00;99.90
33093;DHT22;19456;46.104;12.908;2023-09-18T01:04:57;21.00;99.90
33093;DHT22;19456;46.104;12.908;2023-09-18T01:07:23;21.10;99.90
33093;DHT22;19456;46.104;12.908;2023-09-18T01:09:48;21.20;99.90
33093;DHT22;19456;46.104;12.908;2023-09-18T01:12:25;21.20;99.90
33093;DHT22;19456;46.104;12.908;2023-09-18T01:17:39;21.20;99.90
33093;DHT22;19456;46.104;12.908;2023-09-18T01:20:06;21.10;99.90
33093;DHT22;19456;46.104;12.908;2023-09-18T01:22:34;21.10;99.90
33093;DHT22;19456;46.104;12.908;2023-09-18T01:24:59;21.20;99.90
33093;DHT22;19456;46.104;12.908;2023-09-18T01:27:25;21.20;99.90
33093;DHT22;19456;46.104;12.908;2023-09-18T01:29:50;21.30;99.90
33093;DHT22;19456;46.104;12.908;2023-09-18T01:32:16;21.30;99.90
33093;DHT22;19456;46.104;12.908;2023-09-18T01:34:46;21.30;99.90
33093;DHT22;19456;46.104;12.908;2023-09-18T01:37:12;21.30;99.90
33093;DHT22;19456;46.104;12.908;2023-09-18T01:39:39;21.30;99.90
33093;DHT22;19456;46.104;12.908;2023-09-18T01:42:05;21.20;99.90
33093;DHT22;19456;46.104;12.908;2023-09-18T01:44:31;21.20;99.90
33093;DHT22;19456;46.104;12.908;2023-09-18T01:47:04;21.20;99.90
33093;DHT22;19456;46.104;12.908;2023-09-18T01:49:35;21.10;99.90
33093;DHT22;19456;46.104;12.908;2023-09-18T01:52:02;21.20;99.90
33093;DHT22;19456;46.104;12.908;2023-09-18T01:54:28;21.10;99.90
33093;DHT22;19456;46.104;12.908;2023-09-18T01:56:53;21.10;99.90
33093;DHT22;19456;46.104;12.908;2023-09-18T01:59:19;21.00;99.90
33093;DHT22;19456;46.104;12.908;2023-09-18T02:01:45;21.00;99.90
33093;DHT22;19456;46.104;12.908;2023-09-18T02:04:11;20.90;99.90
33093;DHT22;19456;46.104;12.908;2023-09-18T02:06:36;21.00;99.90
33093;DHT22;19456;46.104;12.908;2023-09-18T02:09:02;21.00;99.90
33093;DHT22;19456;46.104;12.908;2023-09-18T02:11:29;21.00;99.90
33093;DHT22;19456;46.104;12.908;2023-09-18T02:13:54;21.00;99.90
33093;DHT22;19456;46.104;12.908;2023-09-18T02:16:21;20.90;99.90
33093;DHT22;19456;46.104;12.908;2023-09-18T02:18:49;20.80;99.90
33093;DHT22;19456;46.104;12.908;2023-09-18T02:21:21;20.80;99.90
33093;DHT22;19456;46.104;12.908;2023-09-18T02:23:50;20.80;99.90
33093;DHT22;19456;46.104;12.908;2023-09-18T02:26:19;20.80;99.90
33093;DHT22;19456;46.104;12.908;2023-09-18T02:28:45;20.70;99.90
33093;DHT22;19456;46.104;12.908;2023-09-18T02:31:11;20.70;99.90
33093;DHT22;19456;46.104;12.908;2023-09-18T02:33:37;20.60;99.90
33093;DHT22;19456;46.104;12.908;2023-09-18T02:36:02;20.60;99.90
33093;DHT22;19456;46.104;12.908;2023-09-18T02:38:28;20.70;99.90
33093;DHT22;19456;46.104;12.908;2023-09-18T02:40:55;20.70;99.90
33093;DHT22;19456;46.104;12.908;2023-09-18T02:43:22;20.70;99.90
33093;DHT22;19456;46.104;12.908;2023-09-18T02:45:48;20.70;99.90
33093;DHT22;19456;46.104;12.908;2023-09-18T02:48:13;20.70;99.90
33093;DHT22;19456;46.104;12.908;2023-09-18T02:50:39;20.70;99.90
33093;DHT22;19456;46.104;12.908;2023-09-18T02:53:06;20.70;99.90
33093;DHT22;19456;46.104;12.908;2023-09-18T02:55:32;20.80;99.90
33093;DHT22;19456;46.104;12.908;2023-09-18T02:57:57;20.70;99.90
33093;DHT22;19456;46.104;12.908;2023-09-18T03:00:23;20.70;99.90
33093;DHT22;19456;46.104;12.908;2023-09-18T03:02:48;20.60;99.90
33093;DHT22;19456;46.104;12.908;2023-09-18T03:05:14;20.60;99.90
33093;DHT22;19456;46.104;12.908;2023-09-18T03:07:39;20.60;99.90
33093;DHT22;19456;46.104;12.908;2023-09-18T03:10:05;20.60;99.90
33093;DHT22;19456;46.104;12.908;2023-09-18T03:12:31;20.60;99.90
33093;DHT22;19456;46.104;12.908;2023-09-18T03:14:57;20.60;99.90
33093;DHT22;19456;46.104;12.908;2023-09-18T03:17:22;20.60;99.90
33093;DHT22;19456;46.104;12.908;2023-09-18T03:19:48;20.50;99.90
33093;DHT22;19456;46.104;12.908;2023-09-18T03:22:14;20.60;99.90
33093;DHT22;19456;46.104;12.908;2023-09-18T03:24:39;20.70;99.90
33093;DHT22;19456;46.104;12.908;2023-09-18T03:27:05;20.70;99.90
33093;DHT22;19456;46.104;12.908;2023-09-18T03:29:31;20.70;99.90
33093;DHT22;19456;46.104;12.908;2023-09-18T03:31:56;20.70;99.90
33093;DHT22;19456;46.104;12.908;2023-09-18T03:34:23;20.80;99.90
33093;DHT22;19456;46.104;12.908;2023-09-18T03:36:52;20.70;99.90
33093;DHT22;19456;46.104;12.908;2023-09-18T03:39:18;20.70;99.90
33093;DHT22;19456;46.104;12.908;2023-09-18T03:41:43;20.70;99.90
33093;DHT22;19456;46.104;12.908;2023-09-18T03:44:09;20.60;99.90
33093;DHT22;19456;46.104;12.908;2023-09-18T03:46:35;20.70;99.90
33093;DHT22;19456;46.104;12.908;2023-09-18T03:49:01;20.70;99.90
33093;DHT22;19456;46.104;12.908;2023-09-18T03:51:28;20.70;99.90
33093;DHT22;19456;46.104;12.908;2023-09-18T03:53:55;20.70;99.90
33093;DHT22;19456;46.104;12.908;2023-09-18T03:56:20;20.70;99.90
33093;DHT22;19456;46.104;12.908;2023-09-18T03:58:47;20.60;99.90
33093;DHT22;19456;46.104;12.908;2023-09-18T04:01:17;20.70;99.90
33093;DHT22;19456;46.104;12.908;2023-09-18T04:03:43;20.70;99.90
33093;DHT22;19456;46.104;12.908;2023-09-18T04:06:08;20.80;99.90
33093;DHT22;19456;46.104;12.908;2023-09-18T04:08:34;20.80;99.90
33093;DHT22;19456;46.104;12.908;2023-09-18T04:11:00;20.90;99.90
33093;DHT22;19456;46.104;12.908;2023-09-18T04:13:25;20.90;99.90
33093;DHT22;19456;46.104;12.908;2023-09-18T04:15:51;21.00;99.90
33093;DHT22;19456;46.104;12.908;2023-09-18T04:18:22;21.10;99.90
33093;DHT22;19456;46.104;12.908;2023-09-18T04:20:47;21.10;99.90
33093;DHT22;19456;46.104;12.908;2023-09-18T04:25:47;21.20;99.90
33093;DHT22;19456;46.104;12.908;2023-09-18T04:28:13;21.20;99.90
33093;DHT22;19456;46.104;12.908;2023-09-18T04:30:39;21.20;99.90
33093;DHT22;19456;46.104;12.908;2023-09-18T04:33:04;21.20;99.90
33093;DHT22;19456;46.104;12.908;2023-09-18T04:35:30;21.20;99.90
33093;DHT22;19456;46.104;12.908;2023-09-18T04:37:58;21.20;99.90
33093;DHT22;19456;46.104;12.908;2023-09-18T04:40:23;21.20;99.90
33093;DHT22;19456;46.104;12.908;2023-09-18T04:42:50;21.20;99.90
33093;DHT22;19456;46.104;12.908;2023-09-18T04:45:15;21.20;99.90
33093;DHT22;19456;46.104;12.908;2023-09-18T04:47:44;21.10;99.90
33093;DHT22;19456;46.104;12.908;2023-09-18T04:50:09;21.00;99.90
33093;DHT22;19456;46.104;12.908;2023-09-18T04:52:35;20.80;99.90
33093;DHT22;19456;46.104;12.908;2023-09-18T04:55:01;20.70;99.90
33093;DHT22;19456;46.104;12.908;2023-09-18T04:57:26;20.70;99.90
33093;DHT22;19456;46.104;12.908;2023-09-18T04:59:52;20.70;99.90
33093;DHT22;19456;46.104;12.908;2023-09-18T05:02:18;20.60;99.90
33093;DHT22;19456;46.104;12.908;2023-09-18T05:04:43;20.60;99.90
33093;DHT22;19456;46.104;12.908;2023-09-18T05:07:09;20.50;99.90
33093;DHT22;19456;46.104;12.908;2023-09-18T05:09:34;20.60;99.90
33093;DHT22;19456;46.104;12.908;2023-09-18T05:12:00;20.60;99.90
33093;DHT22;19456;46.104;12.908;2023-09-18T05:14:26;20.70;99.90
33093;DHT22;19456;46.104;12.908;2023-09-18T05:16:51;20.80;99.90
33093;DHT22;19456;46.104;12.908;2023-09-18T05:19:17;20.90;99.90
33093;DHT22;19456;46.104;12.908;2023-09-18T05:21:43;20.90;99.90
33093;DHT22;19456;46.104;12.908;2023-09-18T05:24:08;20.90;99.90
33093;DHT22;19456;46.104;12.908;2023-09-18T05:26:34;21.00;99.90
33093;DHT22;19456;46.104;12.908;2023-09-18T05:28:59;21.00;99.90
33093;DHT22;19456;46.104;12.908;2023-09-18T05:31:25;21.10;99.90
33093;DHT22;19456;46.104;12.908;2023-09-18T05:33:52;21.10;99.90
33093;DHT22;19456;46.104;12.908;2023-09-18T05:36:17;21.10;99.90
33093;DHT22;19456;46.104;12.908;2023-09-18T05:38:43;21.10;99.90
33093;DHT22;19456;46.104;12.908;2023-09-18T05:41:08;21.00;99.90
33093;DHT22;19456;46.104;12.908;2023-09-18T05:43:35;20.90;99.90
33093;DHT22;19456;46.104;12.908;2023-09-18T05:46:01;21.00;99.90
33093;DHT22;19456;46.104;12.908;2023-09-18T05:48:26;21.00;99.90
33093;DHT22;19456;46.104;12.908;2023-09-18T05:50:52;21.00;99.90
33093;DHT22;19456;46.104;12.908;2023-09-18T05:53:19;21.00;99.90
33093;DHT22;19456;46.104;12.908;2023-09-18T05:55:45;21.00;99.90
33093;DHT22;19456;46.104;12.908;2023-09-18T05:58:10;21.10;99.90
33093;DHT22;19456;46.104;12.908;2023-09-18T06:00:37;21.20;99.90
33093;DHT22;19456;46.104;12.908;2023-09-18T06:03:02;21.10;99.90
33093;DHT22;19456;46.104;12.908;2023-09-18T06:05:31;21.20;99.90
33093;DHT22;19456;46.104;12.908;2023-09-18T06:08:03;21.30;99.90
33093;DHT22;19456;46.104;12.908;2023-09-18T06:10:31;21.40;99.90
33093;DHT22;19456;46.104;12.908;2023-09-18T06:12:56;21.40;99.90
33093;DHT22;19456;46.104;12.908;2023-09-18T06:15:23;21.50;99.90
33093;DHT22;19456;46.104;12.908;2023-09-18T06:17:49;21.40;99.90
33093;DHT22;19456;46.104;12.908;2023-09-18T06:20:14;21.30;99.90
33093;DHT22;19456;46.104;12.908;2023-09-18T06:22:41;21.20;99.90
33093;DHT22;19456;46.104;12.908;2023-09-18T06:25:07;21.10;99.90
33093;DHT22;19456;46.104;12.908;2023-09-18T06:27:36;20.90;99.90
33093;DHT22;19456;46.104;12.908;2023-09-18T06:30:02;21.00;99.90
33093;DHT22;19456;46.104;12.908;2023-09-18T06:32:28;21.00;99.90
33093;DHT22;19456;46.104;12.908;2023-09-18T06:34:54;21.00;99.90
33093;DHT22;19456;46.104;12.908;2023-09-18T06:37:19;21.00;99.90
33093;DHT22;19456;46.104;12.908;2023-09-18T06:39:45;21.10;99.90
33093;DHT22;19456;46.104;12.908;2023-09-18T06:42:11;21.10;99.90
33093;DHT22;19456;46.104;12.908;2023-09-18T06:44:37;21.20;99.90
33093;DHT22;19456;46.104;12.908;2023-09-18T06:47:02;21.20;99.90
33093;DHT22;19456;46.104;12.908;2023-09-18T06:49:28;21.30;99.90
33093;DHT22;19456;46.104;12.908;2023-09-18T06:51:54;21.30;99.90
33093;DHT22;19456;46.104;12.908;2023-09-18T06:54:19;21.40;99.90
33093;DHT22;19456;46.104;12.908;2023-09-18T06:56:45;21.50;99.90
33093;DHT22;19456;46.104;12.908;2023-09-18T06:59:10;21.60;99.90
33093;DHT22;19456;46.104;12.908;2023-09-18T07:01:37;21.70;99.90
33093;DHT22;19456;46.104;12.908;2023-09-18T07:04:03;21.70;99.90
33093;DHT22;19456;46.104;12.908;2023-09-18T07:06:30;21.80;99.90
33093;DHT22;19456;46.104;12.908;2023-09-18T07:08:55;22.00;99.90
33093;DHT22;19456;46.104;12.908;2023-09-18T07:11:21;21.90;99.90
33093;DHT22;19456;46.104;12.908;2023-09-18T07:13:47;21.90;99.90
33093;DHT22;19456;46.104;12.908;2023-09-18T07:16:12;21.80;99.90
33093;DHT22;19456;46.104;12.908;2023-09-18T07:18:39;21.90;99.90
33093;DHT22;19456;46.104;12.908;2023-09-18T07:21:05;22.00;99.90
33093;DHT22;19456;46.104;12.908;2023-09-18T07:23:30;22.10;99.90
33093;DHT22;19456;46.104;12.908;2023-09-18T07:25:56;22.20;99.90
33093;DHT22;19456;46.104;12.908;2023-09-18T07:28:24;22.20;99.90
33093;DHT22;19456;46.104;12.908;2023-09-18T07:30:52;22.20;99.90
33093;DHT22;19456;46.104;12.908;2023-09-18T07:33:17;22.20;99.90
33093;DHT22;19456;46.104;12.908;2023-09-18T07:35:48;22.20;99.90
33093;DHT22;19456;46.104;12.908;2023-09-18T07:38:14;22.20;99.90
33093;DHT22;19456;46.104;12.908;2023-09-18T07:40:40;22.30;99.90
33093;DHT22;19456;46.104;12.908;2023-09-18T07:43:05;22.40;99.90
33093;DHT22;19456;46.104;12.908;2023-09-18T07:45:33;22.40;99.90
33093;DHT22;19456;46.104;12.908;2023-09-18T07:47:59;22.40;99.90
33093;DHT22;19456;46.104;12.908;2023-09-18T07:50:24;22.50;99.90
33093;DHT22;19456;46.104;12.908;2023-09-18T07:52:50;22.60;99.90
33093;DHT22;19456;46.104;12.908;2023-09-18T07:55:16;22.70;99.90
33093;DHT22;19456;46.104;12.908;2023-09-18T07:57:41;22.70;99.90
33093;DHT22;19456;46.104;12.908;2023-09-18T08:00:07;22.70;99.90
33093;DHT22;19456;46.104;12.908;2023-09-18T08:02:38;22.70;99.90
33093;DHT22;19456;46.104;12.908;2023-09-18T08:05:09;22.90;99.90
33093;DHT22;19456;46.104;12.908;2023-09-18T08:07:35;22.90;99.90
33093;DHT22;19456;46.104;12.908;2023-09-18T08:10:02;23.00;99.90
33093;DHT22;19456;46.104;12.908;2023-09-18T08:12:30;23.10;99.90
33093;DHT22;19456;46.104;12.908;2023-09-18T08:14:57;23.20;99.90
33093;DHT22;19456;46.104;12.908;2023-09-18T08:17:24;23.30;99.90
33093;DHT22;19456;46.104;12.908;2023-09-18T08:19:50;23.30;99.90
33093;DHT22;19456;46.104;12.908;2023-09-18T08:22:17;23.40;99.90
33093;DHT22;19456;46.104;12.908;2023-09-18T08:24:44;23.50;99.90
33093;DHT22;19456;46.104;12.908;2023-09-18T08:27:11;23.60;99.90
33093;DHT22;19456;46.104;12.908;2023-09-18T08:29:37;23.40;99.90
33093;DHT22;19456;46.104;12.908;2023-09-18T08:32:02;23.40;99.90
33093;DHT22;19456;46.104;12.908;2023-09-18T08:34:29;23.30;99.90
33093;DHT22;19456;46.104;12.908;2023-09-18T08:36:54;23.20;99.90
33093;DHT22;19456;46.104;12.908;2023-09-18T08:39:20;23.20;99.90
33093;DHT22;19456;46.104;12.908;2023-09-18T08:41:45;23.30;99.90
33093;DHT22;19456;46.104;12.908;2023-09-18T08:44:13;23.20;99.90
33093;DHT22;19456;46.104;12.908;2023-09-18T08:46:39;23.20;99.90
33093;DHT22;19456;46.104;12.908;2023-09-18T08:49:05;23.20;99.90
33093;DHT22;19456;46.104;12.908;2023-09-18T08:51:32;23.30;99.90
33093;DHT22;19456;46.104;12.908;2023-09-18T08:53:58;23.50;99.90
33093;DHT22;19456;46.104;12.908;2023-09-18T08:56:29;23.60;99.90
33093;DHT22;19456;46.104;12.908;2023-09-18T08:58:57;23.80;99.90
33093;DHT22;19456;46.104;12.908;2023-09-18T09:01:25;24.00;99.90
33093;DHT22;19456;46.104;12.908;2023-09-18T09:03:50;24.10;99.90
33093;DHT22;19456;46.104;12.908;2023-09-18T09:06:16;24.00;99.90
33093;DHT22;19456;46.104;12.908;2023-09-18T09:08:42;23.80;99.90
33093;DHT22;19456;46.104;12.908;2023-09-18T09:11:08;23.70;99.90
33093;DHT22;19456;46.104;12.908;2023-09-18T09:13:33;23.60;99.90
33093;DHT22;19456;46.104;12.908;2023-09-18T09:15:59;23.50;99.90
33093;DHT22;19456;46.104;12.908;2023-09-18T09:18:26;23.50;99.90
33093;DHT22;19456;46.104;12.908;2023-09-18T09:20:56;23.50;99.90
33093;DHT22;19456;46.104;12.908;2023-09-18T09:23:26;23.30;99.90
33093;DHT22;19456;46.104;12.908;2023-09-18T09:25:51;23.30;99.90
33093;DHT22;19456;46.104;12.908;2023-09-18T09:28:26;23.20;99.90
33093;DHT22;19456;46.104;12.908;2023-09-18T09:30:54;23.20;99.90
33093;DHT22;19456;46.104;12.908;2023-09-18T09:33:26;23.20;99.90
33093;DHT22;19456;46.104;12.908;2023-09-18T09:35:52;23.30;99.90
33093;DHT22;19456;46.104;12.908;2023-09-18T09:38:17;23.50;99.90
33093;DHT22;19456;46.104;12.908;2023-09-18T09:40:45;23.50;99.90
33093;DHT22;19456;46.104;12.908;2023-09-18T09:43:11;23.50;99.90
33093;DHT22;19456;46.104;12.908;2023-09-18T09:45:38;23.50;99.90
33093;DHT22;19456;46.104;12.908;2023-09-18T09:48:14;23.60;99.90
33093;DHT22;19456;46.104;12.908;2023-09-18T09:50:47;23.70;99.90
33093;DHT22;19456;46.104;12.908;2023-09-18T09:53:16;23.70;99.90
33093;DHT22;19456;46.104;12.908;2023-09-18T09:55:42;23.70;99.90
33093;DHT22;19456;46.104;12.908;2023-09-18T09:58:11;23.80;99.90
33093;DHT22;19456;46.104;12.908;2023-09-18T10:00:48;23.70;99.90
33093;DHT22;19456;46.104;12.908;2023-09-18T10:03:17;23.80;99.90
33093;DHT22;19456;46.104;12.908;2023-09-18T10:05:47;23.80;99.90
33093;DHT22;19456;46.104;12.908;2023-09-18T10:08:21;23.90;99.90
33093;DHT22;19456;46.104;12.908;2023-09-18T10:11:07;23.90;99.90
33093;DHT22;19456;46.104;12.908;2023-09-18T10:19:17;23.80;99.90
33093;DHT22;19456;46.104;12.908;2023-09-18T10:24:24;23.50;99.90
33093;DHT22;19456;46.104;12.908;2023-09-18T10:26:54;23.30;99.90
33093;DHT22;19456;46.104;12.908;2023-09-18T10:29:40;23.30;99.90
33093;DHT22;19456;46.104;12.908;2023-09-18T10:32:26;23.10;99.90
33093;DHT22;19456;46.104;12.908;2023-09-18T10:34:55;23.10;99.90
33093;DHT22;19456;46.104;12.908;2023-09-18T10:37:21;23.10;99.90
33093;DHT22;19456;46.104;12.908;2023-09-18T10:39:55;23.20;99.90
33093;DHT22;19456;46.104;12.908;2023-09-18T10:42:48;23.40;99.90
33093;DHT22;19456;46.104;12.908;2023-09-18T10:45:47;23.50;99.90
33093;DHT22;19456;46.104;12.908;2023-09-18T10:48:13;23.60;99.90
33093;DHT22;19456;46.104;12.908;2023-09-18T10:50:40;23.50;99.90
33093;DHT22;19456;46.104;12.908;2023-09-18T10:53:13;23.50;99.90
33093;DHT22;19456;46.104;12.908;2023-09-18T10:55:38;23.60;99.90
33093;DHT22;19456;46.104;12.908;2023-09-18T10:58:04;23.80;99.90
33093;DHT22;19456;46.104;12.908;2023-09-18T11:00:31;23.80;99.90
33093;DHT22;19456;46.104;12.908;2023-09-18T11:06:04;23.80;99.90
33093;DHT22;19456;46.104;12.908;2023-09-18T11:08:32;23.90;99.90
33093;DHT22;19456;46.104;12.908;2023-09-18T11:11:00;23.90;99.90
33093;DHT22;19456;46.104;12.908;2023-09-18T11:13:34;24.00;99.90
33093;DHT22;19456;46.104;12.908;2023-09-18T11:16:13;24.00;99.90
33093;DHT22;19456;46.104;12.908;2023-09-18T11:18:39;24.00;99.90
33093;DHT22;19456;46.104;12.908;2023-09-18T11:21:11;23.90;99.90
33093;DHT22;19456;46.104;12.908;2023-09-18T11:23:37;24.00;99.90
33093;DHT22;19456;46.104;12.908;2023-09-18T11:26:04;24.00;99.90
33093;DHT22;19456;46.104;12.908;2023-09-18T11:28:32;24.00;99.90
33093;DHT22;19456;46.104;12.908;2023-09-18T11:30:58;23.90;99.90
33093;DHT22;19456;46.104;12.908;2023-09-18T11:33:35;23.70;99.90
33093;DHT22;19456;46.104;12.908;2023-09-18T11:36:08;23.60;99.90
33093;DHT22;19456;46.104;12.908;2023-09-18T11:38:59;23.70;99.90
33093;DHT22;19456;46.104;12.908;2023-09-18T11:41:33;23.50;99.90
33093;DHT22;19456;46.104;12.908;2023-09-18T11:46:39;23.50;99.90
33093;DHT22;19456;46.104;12.908;2023-09-18T11:49:08;23.40;99.90
33093;DHT22;19456;46.104;12.908;2023-09-18T11:51:37;23.40;99.90
33093;DHT22;19456;46.104;12.908;2023-09-18T11:54:04;23.40;99.90
33093;DHT22;19456;46.104;12.908;2023-09-18T11:56:31;23.50;99.90
33093;DHT22;19456;46.104;12.908;2023-09-18T11:58:57;23.50;99.90
33093;DHT22;19456;46.104;12.908;2023-09-18T12:01:24;23.70;99.90
33093;DHT22;19456;46.104;12.908;2023-09-18T12:03:54;23.80;99.90
33093;DHT22;19456;46.104;12.908;2023-09-18T12:06:20;23.80;99.90
33093;DHT22;19456;46.104;12.908;2023-09-18T12:08:46;23.90;99.90
33093;DHT22;19456;46.104;12.908;2023-09-18T12:11:12;24.00;99.90
33093;DHT22;19456;46.104;12.908;2023-09-18T12:13:46;24.00;99.90
33093;DHT22;19456;46.104;12.908;2023-09-18T12:16:11;24.00;99.90
33093;DHT22;19456;46.104;12.908;2023-09-18T12:18:37;24.00;99.90
33093;DHT22;19456;46.104;12.908;2023-09-18T12:21:09;24.10;99.90
33093;DHT22;19456;46.104;12.908;2023-09-18T12:23:39;24.20;99.90
33093;DHT22;19456;46.104;12.908;2023-09-18T12:26:05;24.30;99.90
33093;DHT22;19456;46.104;12.908;2023-09-18T12:28:35;24.50;99.90
33093;DHT22;19456;46.104;12.908;2023-09-18T12:31:01;24.70;99.90
33093;DHT22;19456;46.104;12.908;2023-09-18T12:33:33;25.00;99.90
33093;DHT22;19456;46.104;12.908;2023-09-18T12:35:59;25.10;99.90
33093;DHT22;19456;46.104;12.908;2023-09-18T12:38:25;25.10;99.90
33093;DHT22;19456;46.104;12.908;2023-09-18T12:40:53;25.20;99.90
33093;DHT22;19456;46.104;12.908;2023-09-18T12:43:22;25.30;99.90
33093;DHT22;19456;46.104;12.908;2023-09-18T12:45:49;25.40;99.90
33093;DHT22;19456;46.104;12.908;2023-09-18T12:48:15;25.50;99.90
33093;DHT22;19456;46.104;12.908;2023-09-18T12:50:41;25.50;99.90
33093;DHT22;19456;46.104;12.908;2023-09-18T12:53:10;25.60;99.90
33093;DHT22;19456;46.104;12.908;2023-09-18T12:55:36;25.60;99.90
33093;DHT22;19456;46.104;12.908;2023-09-18T12:58:02;25.40;99.90
33093;DHT22;19456;46.104;12.908;2023-09-18T13:00:32;25.50;99.90
33093;DHT22;19456;46.104;12.908;2023-09-18T13:02:58;25.50;99.90
33093;DHT22;19456;46.104;12.908;2023-09-18T13:05:23;25.60;99.90
33093;DHT22;19456;46.104;12.908;2023-09-18T13:07:51;25.40;99.90
33093;DHT22;19456;46.104;12.908;2023-09-18T13:10:18;25.20;99.90
33093;DHT22;19456;46.104;12.908;2023-09-18T13:12:50;25.40;99.90
33093;DHT22;19456;46.104;12.908;2023-09-18T13:15:50;25.40;99.90
33093;DHT22;19456;46.104;12.908;2023-09-18T13:18:11;25.50;99.90
33093;DHT22;19456;46.104;12.908;2023-09-18T13:20:37;25.50;99.90
33093;DHT22;19456;46.104;12.908;2023-09-18T13:23:03;25.50;99.90
33093;DHT22;19456;46.104;12.908;2023-09-18T13:28:01;25.60;99.90
33093;DHT22;19456;46.104;12.908;2023-09-18T13:30:27;25.40;99.90
33093;DHT22;19456;46.104;12.908;2023-09-18T13:33:01;25.30;99.90
33093;DHT22;19456;46.104;12.908;2023-09-18T13:35:26;24.90;99.90
33093;DHT22;19456;46.104;12.908;2023-09-18T13:37:52;24.60;99.90
33093;DHT22;19456;46.104;12.908;2023-09-18T13:40:18;24.50;99.90
33093;DHT22;19456;46.104;12.908;2023-09-18T13:42:43;24.50;99.90
33093;DHT22;19456;46.104;12.908;2023-09-18T13:45:09;24.50;99.90
33093;DHT22;19456;46.104;12.908;2023-09-18T13:47:36;24.50;99.90
33093;DHT22;19456;46.104;12.908;2023-09-18T13:50:02;24.40;99.90
33093;DHT22;19456;46.104;12.908;2023-09-18T13:52:29;24.20;99.90
33093;DHT22;19456;46.104;12.908;2023-09-18T13:54:56;24.10;99.90
33093;DHT22;19456;46.104;12.908;2023-09-18T13:57:21;24.10;99.90
33093;DHT22;19456;46.104;12.908;2023-09-18T13:59:47;23.90;99.90
33093;DHT22;19456;46.104;12.908;2023-09-18T14:02:14;23.80;99.90
33093;DHT22;19456;46.104;12.908;2023-09-18T14:04:40;23.80;99.90
33093;DHT22;19456;46.104;12.908;2023-09-18T14:07:06;23.80;99.90
33093;DHT22;19456;46.104;12.908;2023-09-18T14:09:31;23.70;99.90
33093;DHT22;19456;46.104;12.908;2023-09-18T14:11:57;23.50;99.90
33093;DHT22;19456;46.104;12.908;2023-09-18T14:14:23;23.40;99.90
33093;DHT22;19456;46.104;12.908;2023-09-18T14:16:48;23.50;99.90
33093;DHT22;19456;46.104;12.908;2023-09-18T14:19:17;23.50;99.90
33093;DHT22;19456;46.104;12.908;2023-09-18T14:21:43;23.50;99.90
33093;DHT22;19456;46.104;12.908;2023-09-18T14:24:09;23.70;99.90
33093;DHT22;19456;46.104;12.908;2023-09-18T14:26:35;23.90;99.90
33093;DHT22;19456;46.104;12.908;2023-09-18T14:29:08;24.00;99.90
33093;DHT22;19456;46.104;12.908;2023-09-18T14:31:35;24.50;99.90
33093;DHT22;19456;46.104;12.908;2023-09-18T14:34:01;24.70;99.90
33093;DHT22;19456;46.104;12.908;2023-09-18T14:36:26;25.00;99.90
33093;DHT22;19456;46.104;12.908;2023-09-18T14:38:52;25.20;99.90
33093;DHT22;19456;46.104;12.908;2023-09-18T14:41:18;25.30;99.90
33093;DHT22;19456;46.104;12.908;2023-09-18T14:43:46;25.20;99.90
33093;DHT22;19456;46.104;12.908;2023-09-18T14:46:12;25.00;99.90
33093;DHT22;19456;46.104;12.908;2023-09-18T14:48:38;24.90;99.90
33093;DHT22;19456;46.104;12.908;2023-09-18T14:51:04;24.90;99.90
33093;DHT22;19456;46.104;12.908;2023-09-18T14:53:30;24.90;99.90
33093;DHT22;19456;46.104;12.908;2023-09-18T14:55:55;24.80;99.90
33093;DHT22;19456;46.104;12.908;2023-09-18T14:58:21;24.70;99.90
33093;DHT22;19456;46.104;12.908;2023-09-18T15:00:49;24.70;99.90
33093;DHT22;19456;46.104;12.908;2023-09-18T15:03:15;24.60;99.90
33093;DHT22;19456;46.104;12.908;2023-09-18T15:05:40;24.70;99.90
33093;DHT22;19456;46.104;12.908;2023-09-18T15:08:06;24.60;99.90
33093;DHT22;19456;46.104;12.908;2023-09-18T15:10:32;24.60;99.90
33093;DHT22;19456;46.104;12.908;2023-09-18T15:12:58;24.50;99.90
33093;DHT22;19456;46.104;12.908;2023-09-18T15:15:23;24.50;99.90
33093;DHT22;19456;46.104;12.908;2023-09-18T15:17:50;24.50;99.90
33093;DHT22;19456;46.104;12.908;2023-09-18T15:20:17;24.50;99.90
33093;DHT22;19456;46.104;12.908;2023-09-18T15:22:43;24.50;99.90
33093;DHT22;19456;46.104;12.908;2023-09-18T15:25:09;24.40;99.90
33093;DHT22;19456;46.104;12.908;2023-09-18T15:27:36;24.30;99.90
33093;DHT22;19456;46.104;12.908;2023-09-18T15:30:02;24.30;99.90
33093;DHT22;19456;46.104;12.908;2023-09-18T15:32:30;24.20;99.90
33093;DHT22;19456;46.104;12.908;2023-09-18T15:34:55;24.20;99.90
33093;DHT22;19456;46.104;12.908;2023-09-18T15:37:21;24.10;99.90